Time;durP1;ratioP1;P1;durP2;ratioP2;P2;SDS_P1;SDS_P2;PMS_P1;PMS_P2;Temp;Humidity;BMP_temperature;BMP_pressure;BME280_temperature;BME280_humidity;BME280_pressure;Samples;Min_cycle;Max_cycle;Signal;HPM_P1;HPM_P2
2022/07/06 00:00:51;;;;;;;1.33;0.50;;;;;;;;;;4995960;28;20061;-62
2022/07/06 00:03:18;;;;;;;0.70;0.40;;;;;;;;;;4992014;28;20474;-62
2022/07/06 00:05:44;;;;;;;2.20;0.60;;;;;;;;;;4994885;28;20562;-63
2022/07/06 00:08:11;;;;;;;1.48;0.50;;;;;;;;;;5005820;28;20134;-63
2022/07/06 00:10:38;;;;;;;1.25;0.50;;;;;;;;;;4995535;28;20050;-63
2022/07/06 00:13:04;;;;;;;1.70;0.47;;;;;;;;;;4996342;28;20046;-61
2022/07/06 00:15:31;;;;;;;1.98;0.50;;;;;;;;;;4999510;28;20398;-63
2022/07/06 00:17:58;;;;;;;0.85;0.40;;;;;;;;;;4996778;28;20129;-63
2022/07/06 00:20:24;;;;;;;1.05;0.40;;;;;;;;;;4999920;28;20034;-61
2022/07/06 00:22:51;;;;;;;1.90;0.60;;;;;;;;;;4998667;28;20046;-61
2022/07/06 00:25:17;;;;;;;2.47;0.60;;;;;;;;;;5000647;28;20077;-61
2022/07/06 00:27:44;;;;;;;1.40;0.50;;;;;;;;;;5000811;28;20042;-62
2022/07/06 00:30:11;;;;;;;3.30;0.50;;;;;;;;;;4997966;28;20046;-61
2022/07/06 00:32:37;;;;;;;1.17;0.52;;;;;;;;;;5000076;28;20212;-61
2022/07/06 00:35:04;;;;;;;1.25;0.50;;;;;;;;;;4998505;28;20122;-61
2022/07/06 00:37:31;;;;;;;4.10;0.50;;;;;;;;;;4997107;28;20041;-62
2022/07/06 00:39:58;;;;;;;0.90;0.47;;;;;;;;;;4997383;28;20072;-62
2022/07/06 00:42:25;;;;;;;2.33;0.60;;;;;;;;;;4997763;28;20129;-60
2022/07/06 00:44:51;;;;;;;3.47;0.60;;;;;;;;;;4996546;28;20041;-62
2022/07/06 00:47:18;;;;;;;3.72;0.40;;;;;;;;;;4996985;28;20042;-62
2022/07/06 00:52:30;;;;;;;1.60;0.50;;;;;;;;;;4998422;28;20041;-62
2022/07/06 00:54:56;;;;;;;1.63;0.50;;;;;;;;;;5019699;28;20049;-61
2022/07/06 00:57:23;;;;;;;1.20;0.43;;;;;;;;;;5004898;28;20088;-61
2022/07/06 00:59:50;;;;;;;0.80;0.40;;;;;;;;;;5005288;28;20162;-61
2022/07/06 01:02:16;;;;;;;1.45;0.50;;;;;;;;;;4996089;28;20030;-62
2022/07/06 01:04:43;;;;;;;0.88;0.40;;;;;;;;;;4995554;28;20061;-61
2022/07/06 01:07:10;;;;;;;1.90;0.60;;;;;;;;;;4995623;28;20471;-61
2022/07/06 01:09:37;;;;;;;1.10;0.40;;;;;;;;;;4993774;28;20530;-60
2022/07/06 01:12:04;;;;;;;1.80;0.50;;;;;;;;;;4995146;28;20090;-61
2022/07/06 01:14:31;;;;;;;1.38;0.50;;;;;;;;;;4994812;28;20160;-63
2022/07/06 01:16:58;;;;;;;1.70;0.60;;;;;;;;;;4995414;28;20066;-61
2022/07/06 01:19:25;;;;;;;1.10;0.40;;;;;;;;;;4996765;28;20080;-58
2022/07/06 01:21:51;;;;;;;3.50;1.20;;;;;;;;;;4992941;28;20068;-64
2022/07/06 01:24:18;;;;;;;2.25;0.70;;;;;;;;;;5022331;28;20061;-63
2022/07/06 01:26:45;;;;;;;1.70;0.57;;;;;;;;;;5004549;28;20632;-64
2022/07/06 01:29:11;;;;;;;2.33;0.70;;;;;;;;;;4996756;28;20054;-62
2022/07/06 01:31:47;;;;;;;2.20;0.73;;;;;;;;;;5026149;28;20484;-65
2022/07/06 01:34:14;;;;;;;1.92;0.70;;;;;;;;;;4998829;28;20491;-65
2022/07/06 01:36:41;;;;;;;4.38;0.60;;;;;;;;;;4995488;28;20188;-63
2022/07/06 01:39:08;;;;;;;3.95;0.60;;;;;;;;;;4996060;28;20030;-59
2022/07/06 01:41:35;;;;;;;1.75;0.63;;;;;;;;;;4996350;28;20069;-64
2022/07/06 01:44:02;;;;;;;2.17;0.70;;;;;;;;;;4993826;28;20072;-61
2022/07/06 01:46:29;;;;;;;2.20;0.85;;;;;;;;;;4994143;28;20097;-61
2022/07/06 01:48:56;;;;;;;2.60;0.70;;;;;;;;;;4996075;28;20097;-64
2022/07/06 01:51:22;;;;;;;2.17;0.63;;;;;;;;;;4993869;28;20132;-61
2022/07/06 01:53:49;;;;;;;2.28;0.80;;;;;;;;;;4995046;28;20176;-63
2022/07/06 01:56:17;;;;;;;1.70;0.70;;;;;;;;;;5004362;28;20721;-62
2022/07/06 01:58:44;;;;;;;1.88;0.70;;;;;;;;;;4995882;28;20559;-63
2022/07/06 02:01:11;;;;;;;2.08;0.63;;;;;;;;;;4995788;28;21332;-63
2022/07/06 02:03:39;;;;;;;1.88;0.60;;;;;;;;;;4995782;28;20097;-64
2022/07/06 02:06:06;;;;;;;3.28;0.70;;;;;;;;;;4996889;28;20132;-63
2022/07/06 02:08:33;;;;;;;1.98;0.68;;;;;;;;;;4994153;28;20060;-65
2022/07/06 02:11:00;;;;;;;1.23;0.50;;;;;;;;;;4995432;28;20039;-63
2022/07/06 02:13:27;;;;;;;1.75;0.60;;;;;;;;;;4995891;28;20104;-62
2022/07/06 02:15:53;;;;;;;1.70;0.60;;;;;;;;;;4996171;28;20037;-58
2022/07/06 02:18:20;;;;;;;0.98;0.50;;;;;;;;;;4996853;28;20041;-61
2022/07/06 02:20:47;;;;;;;2.47;0.50;;;;;;;;;;4995268;28;20049;-61
2022/07/06 02:23:14;;;;;;;2.13;0.57;;;;;;;;;;4997165;28;20050;-63
2022/07/06 02:25:40;;;;;;;1.65;0.60;;;;;;;;;;4994535;28;20041;-62
2022/07/06 02:28:07;;;;;;;2.80;0.70;;;;;;;;;;4996423;28;20407;-60
2022/07/06 02:30:34;;;;;;;2.75;0.90;;;;;;;;;;5002390;28;20055;-63
2022/07/06 02:33:00;;;;;;;7.75;3.60;;;;;;;;;;4993950;28;20114;-63
2022/07/06 02:35:27;;;;;;;2.10;0.70;;;;;;;;;;4993899;28;20407;-60
2022/07/06 02:37:54;;;;;;;1.55;0.50;;;;;;;;;;5011660;28;20030;-58
2022/07/06 02:40:20;;;;;;;2.88;0.57;;;;;;;;;;4994413;28;20034;-58
2022/07/06 02:42:47;;;;;;;2.10;0.60;;;;;;;;;;4998530;28;20049;-59
2022/07/06 02:45:13;;;;;;;2.47;0.60;;;;;;;;;;4998171;28;20046;-58
2022/07/06 02:47:40;;;;;;;2.13;0.60;;;;;;;;;;4995419;28;20049;-59
2022/07/06 02:50:07;;;;;;;1.27;0.50;;;;;;;;;;4998381;28;20122;-59
2022/07/06 02:52:34;;;;;;;2.85;0.90;;;;;;;;;;4994973;28;20128;-58
2022/07/06 02:55:00;;;;;;;2.05;0.60;;;;;;;;;;4995458;28;20069;-58
2022/07/06 02:57:27;;;;;;;1.35;0.40;;;;;;;;;;5021929;28;20116;-61
2022/07/06 02:59:53;;;;;;;2.17;0.50;;;;;;;;;;5001929;28;20546;-61
2022/07/06 03:02:20;;;;;;;2.03;0.50;;;;;;;;;;4994827;28;20045;-61
2022/07/06 03:04:47;;;;;;;1.67;0.57;;;;;;;;;;4995873;28;20041;-63
2022/07/06 03:07:13;;;;;;;1.75;0.35;;;;;;;;;;4996981;28;20061;-61
2022/07/06 03:09:40;;;;;;;1.50;0.50;;;;;;;;;;4995451;28;20491;-64
2022/07/06 03:12:07;;;;;;;1.25;0.47;;;;;;;;;;4993832;28;20088;-62
2022/07/06 03:14:33;;;;;;;1.88;0.50;;;;;;;;;;4992512;28;20461;-63
2022/07/06 03:17:00;;;;;;;3.47;0.60;;;;;;;;;;4994734;28;20566;-63
2022/07/06 03:19:27;;;;;;;1.73;0.60;;;;;;;;;;5022794;28;20044;-62
2022/07/06 03:21:54;;;;;;;1.05;0.50;;;;;;;;;;5002616;28;20061;-63
2022/07/06 03:24:20;;;;;;;3.13;0.82;;;;;;;;;;4990750;28;20050;-61
2022/07/06 03:26:47;;;;;;;5.07;0.80;;;;;;;;;;4992007;28;20113;-60
2022/07/06 03:29:14;;;;;;;2.55;0.85;;;;;;;;;;4995341;28;20793;-60
2022/07/06 03:31:40;;;;;;;2.55;0.80;;;;;;;;;;4999727;28;20626;-62
2022/07/06 03:34:07;;;;;;;5.15;0.80;;;;;;;;;;4994176;28;20038;-62
2022/07/06 03:36:34;;;;;;;1.88;0.60;;;;;;;;;;4992662;28;21609;-62
2022/07/06 03:39:00;;;;;;;2.60;0.70;;;;;;;;;;4994292;28;20172;-62
2022/07/06 03:41:27;;;;;;;3.25;0.80;;;;;;;;;;4995258;28;20068;-61
2022/07/06 03:43:53;;;;;;;2.53;0.50;;;;;;;;;;5010995;28;20507;-63
2022/07/06 03:46:20;;;;;;;2.13;0.80;;;;;;;;;;5004486;28;20558;-63
2022/07/06 03:48:47;;;;;;;2.17;0.60;;;;;;;;;;4996041;28;20068;-62
2022/07/06 03:51:16;;;;;;;4.15;1.65;;;;;;;;;;5001369;28;20037;-63
2022/07/06 03:53:43;;;;;;;4.07;1.08;;;;;;;;;;4996097;28;20840;-63
2022/07/06 03:56:28;;;;;;;4.25;1.10;;;;;;;;;;4996843;28;20438;-63
2022/07/06 03:58:57;;;;;;;3.60;1.08;;;;;;;;;;5005102;28;20046;-64
2022/07/06 04:01:24;;;;;;;3.10;0.90;;;;;;;;;;4995500;28;20450;-62
2022/07/06 04:03:51;;;;;;;5.65;1.20;;;;;;;;;;4993702;28;20061;-62
2022/07/06 04:06:18;;;;;;;4.03;1.77;;;;;;;;;;4995916;28;20049;-62
2022/07/06 04:08:45;;;;;;;3.22;1.50;;;;;;;;;;4986679;28;20036;-62
2022/07/06 04:11:11;;;;;;;3.35;1.42;;;;;;;;;;5004175;28;20050;-62
2022/07/06 04:13:38;;;;;;;5.47;2.10;;;;;;;;;;5002655;28;20228;-61
2022/07/06 04:16:06;;;;;;;4.82;1.92;;;;;;;;;;4995243;28;20418;-63
2022/07/06 04:18:33;;;;;;;3.55;1.40;;;;;;;;;;4995721;28;20076;-63
2022/07/06 04:20:59;;;;;;;4.05;1.60;;;;;;;;;;4993682;28;20688;-62
2022/07/06 04:23:26;;;;;;;4.95;1.30;;;;;;;;;;4993321;28;20053;-62
2022/07/06 04:25:53;;;;;;;5.93;1.52;;;;;;;;;;4994280;28;20133;-63
2022/07/06 04:28:19;;;;;;;8.23;1.42;;;;;;;;;;4993948;28;20657;-62
2022/07/06 04:30:46;;;;;;;2.80;1.20;;;;;;;;;;4992803;28;20053;-63
2022/07/06 04:33:15;;;;;;;4.35;1.40;;;;;;;;;;4994897;28;20049;-63
2022/07/06 04:35:41;;;;;;;2.90;1.20;;;;;;;;;;4994248;28;20815;-63
2022/07/06 04:38:14;;;;;;;3.53;1.10;;;;;;;;;;4992670;28;20279;-63
2022/07/06 04:40:40;;;;;;;3.50;1.10;;;;;;;;;;4993074;28;20046;-63
2022/07/06 04:43:07;;;;;;;4.38;1.35;;;;;;;;;;4994657;28;20061;-63
2022/07/06 04:45:34;;;;;;;3.80;1.15;;;;;;;;;;4993003;28;20431;-63
2022/07/06 04:48:00;;;;;;;11.57;1.60;;;;;;;;;;4993673;28;20052;-62
2022/07/06 04:50:27;;;;;;;4.20;1.45;;;;;;;;;;4992769;28;20037;-62
2022/07/06 04:52:54;;;;;;;10.73;1.40;;;;;;;;;;4993393;28;20045;-64
2022/07/06 04:55:20;;;;;;;4.75;1.33;;;;;;;;;;4996129;28;20146;-63
2022/07/06 04:57:47;;;;;;;8.82;4.28;;;;;;;;;;5005032;28;20565;-63
2022/07/06 05:00:14;;;;;;;9.07;3.97;;;;;;;;;;4992640;28;20419;-63
2022/07/06 05:02:41;;;;;;;9.27;4.40;;;;;;;;;;4992729;28;20046;-62
2022/07/06 05:05:09;;;;;;;13.00;3.78;;;;;;;;;;4994572;28;20052;-62
2022/07/06 05:07:39;;;;;;;10.30;3.92;;;;;;;;;;4992582;28;20038;-63
2022/07/06 05:10:07;;;;;;;9.02;3.10;;;;;;;;;;4992971;28;20053;-63
2022/07/06 05:12:34;;;;;;;6.88;2.22;;;;;;;;;;4991100;28;20038;-63
2022/07/06 05:15:01;;;;;;;10.93;2.20;;;;;;;;;;4993338;28;20518;-63
2022/07/06 05:17:27;;;;;;;7.82;1.70;;;;;;;;;;4993346;28;20451;-63
2022/07/06 05:19:54;;;;;;;7.55;1.58;;;;;;;;;;4995213;28;20042;-68
2022/07/06 05:22:21;;;;;;;6.40;1.90;;;;;;;;;;5004450;28;20140;-67
2022/07/06 05:24:47;;;;;;;6.22;1.70;;;;;;;;;;5001723;28;20072;-68
2022/07/06 05:27:14;;;;;;;8.40;1.48;;;;;;;;;;4996842;28;20045;-67
2022/07/06 05:29:41;;;;;;;8.07;1.75;;;;;;;;;;4998812;28;20264;-68
2022/07/06 05:32:07;;;;;;;6.53;1.27;;;;;;;;;;5003814;28;20041;-68
2022/07/06 05:34:36;;;;;;;6.38;1.30;;;;;;;;;;5000949;28;20065;-67
2022/07/06 05:37:03;;;;;;;5.13;1.20;;;;;;;;;;5018743;28;20800;-67
2022/07/06 05:39:29;;;;;;;4.35;1.17;;;;;;;;;;4998731;28;20466;-67
2022/07/06 05:41:56;;;;;;;5.75;1.05;;;;;;;;;;4993588;28;20117;-68
2022/07/06 05:44:22;;;;;;;4.28;1.23;;;;;;;;;;4993774;28;20068;-67
2022/07/06 05:46:49;;;;;;;5.85;1.02;;;;;;;;;;4992429;28;20381;-67
2022/07/06 05:52:01;;;;;;;3.35;0.88;;;;;;;;;;4994601;28;20075;-68
2022/07/06 05:54:28;;;;;;;3.42;0.80;;;;;;;;;;4991220;28;20048;-69
2022/07/06 05:56:54;;;;;;;3.80;1.08;;;;;;;;;;4991914;28;20041;-68
2022/07/06 05:59:21;;;;;;;2.33;0.80;;;;;;;;;;4992414;28;20161;-68
2022/07/06 06:01:47;;;;;;;3.78;1.10;;;;;;;;;;4992585;28;20126;-69
2022/07/06 06:04:14;;;;;;;4.35;1.00;;;;;;;;;;4993780;28;20043;-68
2022/07/06 06:06:41;;;;;;;2.97;1.02;;;;;;;;;;4993398;28;20050;-68
2022/07/06 06:09:07;;;;;;;3.05;1.02;;;;;;;;;;4991703;28;20045;-68
2022/07/06 06:11:34;;;;;;;3.00;1.10;;;;;;;;;;4990245;28;20050;-68
2022/07/06 06:14:01;;;;;;;3.40;1.13;;;;;;;;;;4992518;28;20088;-68
2022/07/06 06:16:27;;;;;;;3.65;1.15;;;;;;;;;;4992659;28;20539;-68
2022/07/06 06:18:54;;;;;;;3.78;1.30;;;;;;;;;;4993402;28;20080;-68
2022/07/06 06:21:20;;;;;;;3.25;1.10;;;;;;;;;;4994022;28;20120;-67
2022/07/06 06:23:47;;;;;;;3.10;1.17;;;;;;;;;;4993958;28;21902;-67
2022/07/06 06:26:14;;;;;;;3.45;1.25;;;;;;;;;;4993631;28;20065;-67
2022/07/06 06:28:41;;;;;;;3.47;1.60;;;;;;;;;;4990589;28;22481;-68
2022/07/06 06:31:08;;;;;;;3.40;1.30;;;;;;;;;;4994265;28;20474;-68
2022/07/06 06:33:34;;;;;;;4.03;1.73;;;;;;;;;;4991528;28;20129;-67
2022/07/06 06:36:01;;;;;;;3.58;1.33;;;;;;;;;;5015769;28;20395;-67
2022/07/06 06:38:29;;;;;;;4.05;1.23;;;;;;;;;;5001392;28;20555;-67
2022/07/06 06:40:57;;;;;;;4.82;1.50;;;;;;;;;;4991968;28;20462;-67
2022/07/06 06:43:24;;;;;;;4.10;1.52;;;;;;;;;;4991333;28;20046;-66
2022/07/06 06:45:50;;;;;;;3.67;1.40;;;;;;;;;;4990905;28;20034;-67
2022/07/06 06:48:18;;;;;;;3.15;1.27;;;;;;;;;;4992008;28;20041;-67
2022/07/06 06:50:46;;;;;;;3.72;1.48;;;;;;;;;;4991217;28;20553;-66
2022/07/06 06:53:12;;;;;;;3.60;1.35;;;;;;;;;;4990622;28;20535;-66
2022/07/06 06:55:39;;;;;;;4.45;1.75;;;;;;;;;;4991910;28;20050;-67
2022/07/06 06:58:06;;;;;;;5.63;1.70;;;;;;;;;;4994005;28;20070;-69
2022/07/06 07:00:32;;;;;;;3.47;1.50;;;;;;;;;;4991234;28;20471;-69
2022/07/06 07:02:59;;;;;;;5.30;1.52;;;;;;;;;;4992086;28;20132;-67
2022/07/06 07:05:26;;;;;;;3.63;1.40;;;;;;;;;;4989337;28;20038;-67
2022/07/06 07:07:54;;;;;;;4.63;1.90;;;;;;;;;;4991278;28;20842;-67
2022/07/06 07:10:21;;;;;;;5.30;1.70;;;;;;;;;;4991926;28;20115;-68
2022/07/06 07:12:48;;;;;;;4.45;1.85;;;;;;;;;;5004901;28;20051;-67
2022/07/06 07:15:15;;;;;;;4.50;1.75;;;;;;;;;;4999308;28;20072;-67
2022/07/06 07:17:41;;;;;;;3.50;1.70;;;;;;;;;;4991857;28;20096;-67
2022/07/06 07:20:08;;;;;;;4.85;2.35;;;;;;;;;;4990924;28;20052;-67
2022/07/06 07:22:35;;;;;;;5.90;2.00;;;;;;;;;;4991131;28;20042;-67
2022/07/06 07:25:01;;;;;;;4.07;1.85;;;;;;;;;;4993018;28;20037;-67
2022/07/06 07:27:28;;;;;;;4.25;1.90;;;;;;;;;;5019628;28;20590;-67
2022/07/06 07:29:55;;;;;;;5.97;2.13;;;;;;;;;;4996706;28;20061;-68
2022/07/06 07:32:21;;;;;;;5.15;1.95;;;;;;;;;;4991149;28;20120;-68
2022/07/06 07:34:48;;;;;;;5.45;2.28;;;;;;;;;;4995492;28;20042;-68
2022/07/06 07:37:15;;;;;;;4.00;1.88;;;;;;;;;;4991401;28;20412;-68
2022/07/06 07:39:42;;;;;;;4.85;2.10;;;;;;;;;;4992154;28;20516;-68
2022/07/06 07:42:08;;;;;;;4.80;2.03;;;;;;;;;;4991127;28;20904;-67
2022/07/06 07:44:35;;;;;;;4.20;2.08;;;;;;;;;;4993587;28;20050;-68
2022/07/06 07:47:02;;;;;;;6.15;2.67;;;;;;;;;;4991129;28;20065;-67
2022/07/06 07:49:28;;;;;;;5.88;2.17;;;;;;;;;;4990719;28;20042;-68
2022/07/06 07:51:55;;;;;;;4.55;2.20;;;;;;;;;;4990552;28;20076;-67
2022/07/06 07:54:21;;;;;;;3.90;1.95;;;;;;;;;;4992550;28;20049;-68
2022/07/06 07:56:48;;;;;;;5.28;2.33;;;;;;;;;;4994016;28;20037;-68
2022/07/06 07:59:15;;;;;;;5.38;2.35;;;;;;;;;;4992114;28;20129;-68
2022/07/06 08:01:41;;;;;;;6.22;2.33;;;;;;;;;;4988950;28;20391;-68
2022/07/06 08:04:08;;;;;;;8.15;2.50;;;;;;;;;;4991964;28;20142;-68
2022/07/06 08:06:35;;;;;;;4.60;2.20;;;;;;;;;;4993689;28;20041;-68
2022/07/06 08:09:03;;;;;;;5.35;2.50;;;;;;;;;;4991355;28;20041;-68
2022/07/06 08:11:30;;;;;;;5.65;2.15;;;;;;;;;;4990512;28;20415;-68
2022/07/06 08:13:56;;;;;;;5.10;2.47;;;;;;;;;;4991584;28;20049;-67
2022/07/06 08:16:23;;;;;;;4.60;2.33;;;;;;;;;;4990469;28;20045;-67
2022/07/06 08:18:49;;;;;;;5.78;2.53;;;;;;;;;;4991732;28;20065;-67
2022/07/06 08:21:16;;;;;;;5.13;2.25;;;;;;;;;;4992843;28;20046;-67
2022/07/06 08:23:43;;;;;;;5.10;2.65;;;;;;;;;;4991240;28;20129;-67
2022/07/06 08:26:09;;;;;;;5.60;2.28;;;;;;;;;;4998047;28;20073;-68
2022/07/06 08:28:36;;;;;;;5.43;2.67;;;;;;;;;;4997266;28;20512;-67
2022/07/06 08:31:02;;;;;;;4.50;2.35;;;;;;;;;;4995890;28;20080;-67
2022/07/06 08:33:29;;;;;;;4.30;2.33;;;;;;;;;;5022493;28;20782;-67
2022/07/06 08:35:56;;;;;;;5.93;2.70;;;;;;;;;;5001550;28;20129;-67
2022/07/06 08:38:22;;;;;;;4.93;2.88;;;;;;;;;;4992994;28;20398;-67
2022/07/06 08:40:51;;;;;;;5.35;2.70;;;;;;;;;;4993658;28;20435;-67
2022/07/06 08:43:17;;;;;;;5.95;2.67;;;;;;;;;;4995901;28;20491;-67
2022/07/06 08:45:45;;;;;;;8.90;2.83;;;;;;;;;;4995206;28;20399;-67
2022/07/06 08:48:13;;;;;;;6.97;2.83;;;;;;;;;;4998587;28;20068;-67
2022/07/06 08:50:40;;;;;;;4.90;2.63;;;;;;;;;;4994295;28;20148;-67
2022/07/06 08:53:07;;;;;;;6.57;2.92;;;;;;;;;;4993883;28;20071;-67
2022/07/06 08:55:34;;;;;;;6.30;2.58;;;;;;;;;;4994947;28;20046;-68
2022/07/06 08:58:00;;;;;;;5.50;2.72;;;;;;;;;;4996313;28;20084;-68
2022/07/06 09:00:27;;;;;;;5.03;2.92;;;;;;;;;;4995019;28;20084;-68
2022/07/06 09:02:56;;;;;;;6.18;3.22;;;;;;;;;;4994925;28;20046;-68
2022/07/06 09:05:24;;;;;;;6.28;3.28;;;;;;;;;;4995239;28;20037;-68
2022/07/06 09:07:52;;;;;;;4.95;2.95;;;;;;;;;;4994023;28;20082;-62
2022/07/06 09:10:20;;;;;;;5.65;3.00;;;;;;;;;;4995679;28;20137;-63
2022/07/06 09:12:47;;;;;;;6.63;2.92;;;;;;;;;;4991337;28;20172;-61
2022/07/06 09:15:13;;;;;;;4.93;2.70;;;;;;;;;;4994918;28;20061;-63
2022/07/06 09:17:40;;;;;;;5.68;2.90;;;;;;;;;;4991761;28;21255;-63
2022/07/06 09:20:08;;;;;;;5.43;2.88;;;;;;;;;;4992388;28;20492;-63
2022/07/06 09:22:35;;;;;;;6.40;3.30;;;;;;;;;;4993175;28;20064;-63
2022/07/06 09:25:04;;;;;;;5.13;2.85;;;;;;;;;;4993577;28;20045;-64
2022/07/06 09:27:31;;;;;;;6.38;3.10;;;;;;;;;;4995348;28;20093;-63
2022/07/06 09:30:01;;;;;;;7.85;2.78;;;;;;;;;;4994278;28;20586;-64
2022/07/06 09:32:28;;;;;;;6.93;3.03;;;;;;;;;;4993871;28;20038;-64
2022/07/06 09:34:55;;;;;;;5.47;3.15;;;;;;;;;;4992897;28;20062;-63
2022/07/06 09:37:25;;;;;;;5.40;2.95;;;;;;;;;;4993966;28;20062;-63
2022/07/06 09:39:52;;;;;;;6.85;2.80;;;;;;;;;;5015061;28;20447;-63
2022/07/06 09:42:24;;;;;;;5.20;2.90;;;;;;;;;;4999236;28;20126;-63
2022/07/06 09:44:51;;;;;;;6.87;3.17;;;;;;;;;;5000896;28;20854;-63
2022/07/06 09:47:19;;;;;;;5.53;2.78;;;;;;;;;;4995119;28;20045;-63
2022/07/06 09:49:47;;;;;;;6.43;2.83;;;;;;;;;;4992473;28;20122;-63
2022/07/06 09:52:14;;;;;;;6.05;3.00;;;;;;;;;;4994243;28;20045;-63
2022/07/06 09:54:42;;;;;;;6.15;3.28;;;;;;;;;;4991800;28;20086;-63
2022/07/06 09:57:09;;;;;;;6.95;3.03;;;;;;;;;;4992093;28;20039;-63
2022/07/06 09:59:36;;;;;;;6.68;3.30;;;;;;;;;;4991943;28;20034;-63
2022/07/06 10:02:07;;;;;;;5.47;2.90;;;;;;;;;;4990718;28;20133;-63
2022/07/06 10:04:34;;;;;;;5.47;2.83;;;;;;;;;;4994913;28;20152;-62
2022/07/06 10:07:01;;;;;;;7.03;3.55;;;;;;;;;;4994755;28;20488;-62
2022/07/06 10:09:34;;;;;;;8.27;3.38;;;;;;;;;;4995324;28;20410;-63
2022/07/06 10:12:01;;;;;;;6.43;3.28;;;;;;;;;;5006779;28;20063;-62
2022/07/06 10:14:32;;;;;;;7.35;3.55;;;;;;;;;;5001158;28;20069;-62
2022/07/06 10:16:59;;;;;;;5.90;3.17;;;;;;;;;;4992995;28;20045;-63
2022/07/06 10:19:26;;;;;;;5.68;2.83;;;;;;;;;;4993604;28;20045;-63
2022/07/06 10:21:53;;;;;;;6.32;2.90;;;;;;;;;;4991884;28;20030;-63
2022/07/06 10:24:20;;;;;;;5.72;3.20;;;;;;;;;;4993036;28;20088;-62
2022/07/06 10:26:56;;;;;;;6.15;3.20;;;;;;;;;;4998444;28;20119;-63
2022/07/06 10:29:24;;;;;;;5.63;3.05;;;;;;;;;;5018416;28;20136;-61
2022/07/06 10:31:51;;;;;;;5.32;2.90;;;;;;;;;;5002863;28;20444;-62
2022/07/06 10:34:19;;;;;;;6.35;3.10;;;;;;;;;;5018140;28;20034;-62
2022/07/06 10:36:50;;;;;;;5.82;3.08;;;;;;;;;;5005775;28;20042;-62
2022/07/06 10:42:02;;;;;;;6.22;3.20;;;;;;;;;;4992077;28;20073;-62
2022/07/06 10:44:29;;;;;;;6.18;3.20;;;;;;;;;;4990703;28;20074;-61
2022/07/06 10:46:59;;;;;;;5.38;3.10;;;;;;;;;;4990878;28;20129;-60
2022/07/06 10:49:26;;;;;;;5.90;3.05;;;;;;;;;;4989474;28;20184;-62
2022/07/06 10:51:53;;;;;;;5.38;3.05;;;;;;;;;;4993280;28;20049;-63
2022/07/06 10:54:22;;;;;;;4.80;2.45;;;;;;;;;;4989045;28;20034;-63
2022/07/06 10:56:50;;;;;;;6.15;3.17;;;;;;;;;;5005020;28;20049;-62
2022/07/06 10:59:24;;;;;;;6.47;3.47;;;;;;;;;;5020931;28;20034;-63
2022/07/06 11:02:09;;;;;;;5.60;3.17;;;;;;;;;;4989523;28;20148;-63
2022/07/06 11:04:36;;;;;;;4.95;2.88;;;;;;;;;;4991333;28;20132;-64
2022/07/06 11:07:12;;;;;;;6.05;3.15;;;;;;;;;;4993893;28;21166;-64
2022/07/06 11:09:42;;;;;;;6.47;3.00;;;;;;;;;;4992330;28;20068;-64
2022/07/06 11:12:15;;;;;;;6.00;3.03;;;;;;;;;;4991724;28;20375;-63
2022/07/06 11:14:42;;;;;;;6.72;3.38;;;;;;;;;;4992513;28;20031;-63
2022/07/06 11:17:11;;;;;;;6.13;3.42;;;;;;;;;;4994021;28;20088;-63
2022/07/06 11:19:38;;;;;;;6.15;3.38;;;;;;;;;;4992841;28;20071;-62
2022/07/06 11:22:08;;;;;;;8.70;3.15;;;;;;;;;;4992123;28;20116;-63
2022/07/06 11:24:36;;;;;;;9.20;3.78;;;;;;;;;;4982795;28;20172;-63
2022/07/06 11:27:08;;;;;;;5.95;3.15;;;;;;;;;;4992375;28;20120;-63
2022/07/06 11:29:38;;;;;;;6.38;3.53;;;;;;;;;;4990678;28;20052;-62
2022/07/06 11:32:09;;;;;;;7.07;3.55;;;;;;;;;;4991977;28;20056;-61
2022/07/06 11:34:37;;;;;;;7.85;4.35;;;;;;;;;;4992274;28;20137;-60
2022/07/06 11:37:11;;;;;;;8.77;4.53;;;;;;;;;;5015883;28;20093;-62
2022/07/06 11:39:42;;;;;;;8.88;5.00;;;;;;;;;;4998885;28;20050;-62
2022/07/06 11:42:09;;;;;;;12.88;5.57;;;;;;;;;;4993750;28;20502;-62
2022/07/06 11:44:36;;;;;;;10.57;5.63;;;;;;;;;;4989491;28;20100;-62
2022/07/06 11:47:04;;;;;;;17.70;9.45;;;;;;;;;;4991209;28;20049;-63
2022/07/06 11:49:31;;;;;;;28.13;16.42;;;;;;;;;;4990991;28;20602;-63
2022/07/06 11:51:58;;;;;;;28.92;14.93;;;;;;;;;;4991744;28;20045;-63
2022/07/06 11:54:28;;;;;;;19.88;10.77;;;;;;;;;;4980651;28;20042;-63
2022/07/06 11:56:59;;;;;;;18.20;8.70;;;;;;;;;;5003887;28;20172;-63
2022/07/06 11:59:26;;;;;;;11.65;6.72;;;;;;;;;;4999025;28;20124;-63
2022/07/06 12:01:59;;;;;;;11.23;5.70;;;;;;;;;;5002462;28;20541;-62
2022/07/06 12:04:25;;;;;;;;;;;;;;;;;;4995184;28;20054;-62
2022/07/06 12:06:52;;;;;;;10.63;5.13;;;;;;;;;;4994595;28;19921;-62
2022/07/06 12:09:20;;;;;;;9.13;4.80;;;;;;;;;;4995218;28;20144;-63
2022/07/06 12:11:47;;;;;;;11.00;5.38;;;;;;;;;;4992897;28;20546;-63
2022/07/06 12:14:21;;;;;;;9.40;4.85;;;;;;;;;;4998016;28;20153;-63
2022/07/06 12:16:49;;;;;;;10.50;4.80;;;;;;;;;;5000535;28;20046;-62
2022/07/06 12:19:16;;;;;;;8.10;4.20;;;;;;;;;;4996007;28;20041;-62
2022/07/06 12:21:53;;;;;;;11.07;4.70;;;;;;;;;;4995802;28;20041;-62
2022/07/06 12:24:20;;;;;;;7.43;4.30;;;;;;;;;;4996071;28;20085;-62
2022/07/06 12:26:52;;;;;;;8.43;4.93;;;;;;;;;;4994492;28;20046;-62
2022/07/06 12:29:21;;;;;;;9.13;4.80;;;;;;;;;;4995263;28;20076;-62
2022/07/06 12:31:57;;;;;;;10.38;5.10;;;;;;;;;;5000670;28;20128;-62
2022/07/06 12:34:24;;;;;;;9.40;4.40;;;;;;;;;;4995632;28;20057;-62
2022/07/06 12:36:51;;;;;;;8.55;4.97;;;;;;;;;;4993342;28;20038;-63
2022/07/06 12:39:21;;;;;;;10.57;4.70;;;;;;;;;;5001690;28;20053;-60
2022/07/06 12:41:51;;;;;;;7.47;4.68;;;;;;;;;;5003543;28;20114;-61
2022/07/06 12:44:19;;;;;;;9.25;5.25;;;;;;;;;;4993301;28;20128;-59
2022/07/06 12:46:47;;;;;;;8.43;5.22;;;;;;;;;;4993187;28;20039;-62
2022/07/06 12:49:17;;;;;;;8.55;4.82;;;;;;;;;;4993132;28;20809;-61
2022/07/06 12:51:50;;;;;;;13.93;5.78;;;;;;;;;;4993791;28;20037;-63
2022/07/06 12:54:17;;;;;;;7.93;4.78;;;;;;;;;;4996852;28;20553;-63
2022/07/06 12:57:02;;;;;;;7.72;4.78;;;;;;;;;;4994585;28;20042;-63
2022/07/06 12:59:30;;;;;;;10.40;5.50;;;;;;;;;;4993936;28;20100;-61
2022/07/06 13:01:57;;;;;;;9.70;5.70;;;;;;;;;;4998200;28;20495;-62
2022/07/06 13:04:27;;;;;;;10.05;5.82;;;;;;;;;;4994919;28;20120;-62
2022/07/06 13:06:54;;;;;;;8.95;5.53;;;;;;;;;;4994926;28;20099;-62
2022/07/06 13:09:21;;;;;;;9.90;5.78;;;;;;;;;;4992988;28;20518;-62
2022/07/06 13:11:48;;;;;;;11.10;5.80;;;;;;;;;;4994173;28;20053;-61
2022/07/06 13:14:16;;;;;;;9.60;5.78;;;;;;;;;;4995314;28;20475;-64
2022/07/06 13:16:46;;;;;;;14.15;6.35;;;;;;;;;;4994133;28;20813;-62
2022/07/06 13:19:13;;;;;;;9.40;6.30;;;;;;;;;;5005608;28;20054;-62
2022/07/06 13:21:44;;;;;;;11.23;6.05;;;;;;;;;;5000985;28;20121;-63
2022/07/06 13:24:11;;;;;;;12.52;6.13;;;;;;;;;;4997197;28;20137;-65
2022/07/06 13:26:38;;;;;;;12.55;6.32;;;;;;;;;;4994521;28;20121;-64
2022/07/06 13:29:04;;;;;;;9.60;6.10;;;;;;;;;;4995028;28;20845;-62
2022/07/06 13:31:31;;;;;;;12.57;6.70;;;;;;;;;;4995719;28;20033;-62
2022/07/06 13:33:58;;;;;;;11.30;6.53;;;;;;;;;;4994823;28;20041;-63
2022/07/06 13:36:25;;;;;;;10.93;6.68;;;;;;;;;;4996727;28;20402;-62
2022/07/06 13:38:51;;;;;;;10.77;6.45;;;;;;;;;;4996968;28;20038;-61
2022/07/06 13:41:18;;;;;;;11.40;6.57;;;;;;;;;;5019886;28;20121;-61
2022/07/06 13:43:45;;;;;;;10.80;6.50;;;;;;;;;;4994691;28;22298;-62
2022/07/06 13:46:11;;;;;;;13.50;6.47;;;;;;;;;;5008564;28;20034;-62
2022/07/06 13:48:38;;;;;;;11.40;6.60;;;;;;;;;;5000673;28;20042;-62
2022/07/06 13:51:05;;;;;;;12.05;5.95;;;;;;;;;;4994289;28;20107;-62
2022/07/06 13:53:32;;;;;;;10.40;6.63;;;;;;;;;;4993282;28;20025;-62
2022/07/06 13:55:58;;;;;;;11.60;7.10;;;;;;;;;;4993333;28;20046;-61
2022/07/06 13:58:25;;;;;;;12.38;6.90;;;;;;;;;;4991398;28;20046;-62
2022/07/06 14:00:52;;;;;;;13.27;6.68;;;;;;;;;;4995218;28;21639;-62
2022/07/06 14:03:18;;;;;;;11.40;7.40;;;;;;;;;;4992023;28;20060;-62
2022/07/06 14:05:45;;;;;;;12.55;6.97;;;;;;;;;;5024403;28;20026;-62
2022/07/06 14:08:12;;;;;;;10.90;7.18;;;;;;;;;;4997285;28;20046;-62
2022/07/06 14:10:39;;;;;;;10.23;6.53;;;;;;;;;;4991493;28;20060;-62
2022/07/06 14:13:05;;;;;;;11.40;6.63;;;;;;;;;;4991144;28;20047;-62
2022/07/06 14:15:33;;;;;;;11.07;6.75;;;;;;;;;;4989816;28;20070;-62
2022/07/06 14:18:00;;;;;;;11.07;7.32;;;;;;;;;;4991488;28;20153;-62
2022/07/06 14:20:27;;;;;;;12.38;6.95;;;;;;;;;;4991893;28;20049;-62
2022/07/06 14:22:53;;;;;;;13.48;7.82;;;;;;;;;;4993979;28;20073;-62
2022/07/06 14:25:20;;;;;;;11.68;7.40;;;;;;;;;;4993233;28;20069;-61
2022/07/06 14:27:46;;;;;;;11.93;7.15;;;;;;;;;;4990278;28;20113;-62
2022/07/06 14:30:13;;;;;;;10.82;7.38;;;;;;;;;;5019950;28;20046;-62
2022/07/06 14:32:40;;;;;;;11.75;7.65;;;;;;;;;;5000118;28;20054;-62
2022/07/06 14:35:06;;;;;;;12.73;7.00;;;;;;;;;;4994434;28;20496;-62
2022/07/06 14:37:33;;;;;;;10.68;6.35;;;;;;;;;;4991054;28;20057;-62
2022/07/06 14:40:00;;;;;;;10.88;7.30;;;;;;;;;;4995022;28;20038;-62
2022/07/06 14:42:26;;;;;;;11.48;7.57;;;;;;;;;;4993410;28;20165;-62
2022/07/06 14:44:53;;;;;;;12.25;7.10;;;;;;;;;;4994625;28;20116;-61
2022/07/06 14:47:19;;;;;;;11.90;6.88;;;;;;;;;;4992584;28;20116;-61
2022/07/06 14:49:46;;;;;;;11.73;6.82;;;;;;;;;;5012060;28;20034;-62